createdAt,value
2019-05-03T00:02:14.971Z,4.77
2019-05-03T00:07:22.341Z,5.30
2019-05-03T00:12:32.767Z,5.40
2019-05-03T00:17:38.146Z,5.50
2019-05-03T00:22:41.970Z,7.50
2019-05-03T00:27:48.254Z,8.37
2019-05-03T00:32:54.945Z,9.27
2019-05-03T00:38:02.878Z,10.87
2019-05-03T00:43:12.450Z,10.10
2019-05-03T00:48:17.779Z,8.00
2019-05-03T00:53:22.390Z,8.00
2019-05-03T00:58:26.105Z,7.27
2019-05-03T01:03:32.662Z,6.13
2019-05-03T01:08:37.127Z,5.60
2019-05-03T01:13:42.324Z,6.80
2019-05-03T01:18:49.080Z,6.53
2019-05-03T01:23:58.518Z,6.90
2019-05-03T01:29:02.727Z,7.10
2019-05-03T01:34:10.148Z,6.07
2019-05-03T01:39:16.737Z,7.10
2019-05-03T01:44:23.007Z,6.37
2019-05-03T01:49:28.311Z,4.97
2019-05-03T01:54:32.214Z,4.30
2019-05-03T01:59:38.630Z,4.47
2019-05-03T02:04:47.883Z,4.37
2019-05-03T02:09:53.236Z,4.63
2019-05-03T02:14:59.377Z,4.40
2019-05-03T02:20:04.352Z,3.93
2019-05-03T02:25:09.907Z,4.00
2019-05-03T02:30:28.789Z,4.10
2019-05-03T02:35:33.364Z,4.87
2019-05-03T02:40:37.252Z,4.70
2019-05-03T02:46:01.027Z,5.70
2019-05-03T02:51:15.719Z,6.67
2019-05-03T02:56:22.312Z,5.53
2019-05-03T03:01:27.048Z,5.77
2019-05-03T03:06:32.324Z,6.57
2019-05-03T03:11:38.830Z,7.93
2019-05-03T03:16:45.761Z,8.80
2019-05-03T03:21:51.815Z,9.03
2019-05-03T03:26:58.503Z,8.70
2019-05-03T03:32:18.415Z,8.80
2019-05-03T03:37:25.961Z,7.87
2019-05-03T03:42:31.076Z,7.63
2019-05-03T03:47:37.994Z,7.33
2019-05-03T03:52:45.325Z,6.93
2019-05-03T03:57:50.783Z,6.57
2019-05-03T04:02:55.257Z,5.30
2019-05-03T04:08:01.977Z,5.70
2019-05-03T04:13:07.302Z,6.60
2019-05-03T04:18:30.031Z,6.10
2019-05-03T04:23:35.830Z,4.77
2019-05-03T04:28:45.353Z,4.70
2019-05-03T04:33:48.989Z,4.33
2019-05-03T04:38:52.655Z,4.40
2019-05-03T04:43:57.302Z,4.87
2019-05-03T04:49:00.864Z,4.80
2019-05-03T04:54:25.640Z,4.47
2019-05-03T04:59:35.881Z,3.10
2019-05-03T05:04:35.765Z,3.20
2019-05-03T05:09:45.774Z,3.00
2019-05-03T05:14:51.012Z,2.60
2019-05-03T05:20:05.375Z,2.30
2019-05-03T05:25:11.447Z,2.40
2019-05-03T05:30:18.036Z,1.83
2019-05-03T05:35:27.347Z,2.07
2019-05-03T05:40:30.939Z,1.83
2019-05-03T05:45:40.091Z,1.70
2019-05-03T05:50:49.650Z,2.50
2019-05-03T05:55:57.706Z,1.83
2019-05-03T06:01:08.806Z,1.97
2019-05-03T06:06:15.263Z,2.50
2019-05-03T06:11:23.161Z,2.30
2019-05-03T06:16:45.168Z,2.87
2019-05-03T06:22:06.938Z,2.50
2019-05-03T06:27:18.032Z,2.90
2019-05-03T06:32:25.265Z,2.23
2019-05-03T06:37:32.807Z,1.87
2019-05-03T06:42:50.977Z,1.53
2019-05-03T06:47:45.911Z,1.77
2019-05-03T06:52:51.263Z,2.27
2019-05-03T06:57:55.373Z,1.70
2019-05-03T07:03:00.623Z,1.63
2019-05-03T07:08:25.408Z,1.60
2019-05-03T07:13:34.678Z,1.20
2019-05-03T07:18:45.607Z,1.60
2019-05-03T07:23:52.188Z,1.10
2019-05-03T07:28:59.958Z,1.30
2019-05-03T07:34:05.323Z,1.40
2019-05-03T07:39:10.647Z,1.30
2019-05-03T07:44:17.222Z,1.33
2019-05-03T07:49:24.997Z,1.20
2019-05-03T07:54:29.410Z,1.20
2019-05-03T07:59:33.010Z,1.30
2019-05-03T08:04:40.594Z,1.53
2019-05-03T08:09:45.281Z,1.50
2019-05-03T08:14:50.567Z,1.87
2019-05-03T08:19:56.919Z,1.60
2019-05-03T08:25:08.003Z,1.20
2019-05-03T08:30:16.182Z,1.77
2019-05-03T08:35:32.212Z,1.80
2019-05-03T08:40:40.576Z,2.00
2019-05-03T08:45:52.025Z,2.40
2019-05-03T08:50:57.405Z,2.00
2019-05-03T08:56:05.310Z,3.50
2019-05-03T09:01:17.953Z,2.00
2019-05-03T09:06:17.402Z,1.67
2019-05-03T09:11:30.825Z,1.87
2019-05-03T09:16:27.116Z,2.20
2019-05-03T09:21:36.640Z,1.77
2019-05-03T09:26:40.289Z,2.50
2019-05-03T09:31:44.673Z,2.50
2019-05-03T09:36:52.046Z,2.50
2019-05-03T09:41:58.468Z,2.60
2019-05-03T09:47:02.086Z,2.13
2019-05-03T09:52:09.559Z,1.90
2019-05-03T09:57:15.955Z,2.00
2019-05-03T10:02:19.722Z,1.70
2019-05-03T10:07:27.987Z,1.70
2019-05-03T10:12:34.128Z,1.40
2019-05-03T10:17:39.456Z,4.67
2019-05-03T10:22:44.083Z,2.00
2019-05-03T10:27:49.412Z,1.90
2019-05-03T10:33:09.705Z,2.17
2019-05-03T10:38:17.505Z,2.10
2019-05-03T10:43:18.636Z,1.90
2019-05-03T10:48:22.258Z,2.20
2019-05-03T10:53:39.909Z,1.90
2019-05-03T10:58:51.244Z,2.07
2019-05-03T11:03:57.698Z,2.20
2019-05-03T11:09:05.646Z,2.50
2019-05-03T11:14:09.661Z,1.40
2019-05-03T11:19:49.926Z,2.00
2019-05-03T11:24:54.668Z,4.17
2019-05-03T11:30:00.036Z,1.60
2019-05-03T11:35:06.532Z,1.83
2019-05-03T11:40:11.674Z,1.00
2019-05-03T11:45:18.315Z,1.40
2019-05-03T11:50:21.994Z,1.40
2019-05-03T11:55:29.700Z,1.50
2019-05-03T12:00:35.131Z,1.80
2019-05-03T12:05:43.418Z,1.50
2019-05-03T12:10:58.555Z,1.33
2019-05-03T12:15:59.750Z,1.83
2019-05-03T12:21:07.806Z,3.03
2019-05-03T12:26:13.356Z,2.10
2019-05-03T12:31:29.669Z,1.60
2019-05-03T12:36:20.938Z,2.30
2019-05-03T12:41:30.552Z,2.43
2019-05-03T12:46:38.518Z,2.90
2019-05-03T12:51:42.130Z,4.53
2019-05-03T12:56:48.882Z,5.33
2019-05-03T13:02:10.750Z,6.10
2019-05-03T13:07:18.946Z,7.73
2019-05-03T13:12:27.161Z,7.30
2019-05-03T13:17:37.620Z,8.10
2019-05-03T13:22:41.369Z,7.70
2019-05-03T13:27:46.075Z,7.67
2019-05-03T13:32:50.764Z,7.37
2019-05-03T13:37:57.122Z,7.27
2019-05-03T13:43:03.766Z,6.53
2019-05-03T13:48:08.918Z,7.27
2019-05-03T13:53:16.012Z,7.17
2019-05-03T13:58:20.633Z,6.17
2019-05-03T14:03:24.383Z,5.97
2019-05-03T14:08:28.173Z,5.20
2019-05-03T14:13:31.785Z,6.30
2019-05-03T14:18:35.819Z,6.60
2019-05-03T14:23:57.543Z,6.73
2019-05-03T14:29:01.170Z,5.70
2019-05-03T14:34:11.468Z,4.50
2019-05-03T14:39:25.291Z,3.50
2019-05-03T14:44:31.249Z,2.80
2019-05-03T14:49:40.761Z,3.23
2019-05-03T14:54:46.116Z,3.27
2019-05-03T15:00:03.411Z,2.70
2019-05-03T15:05:10.750Z,3.50
2019-05-03T15:10:15.037Z,3.70
2019-05-03T15:15:20.710Z,4.40
2019-05-03T15:20:25.521Z,3.90
2019-05-03T15:25:29.352Z,4.50
2019-05-03T15:30:40.331Z,9.00
2019-05-03T15:35:46.526Z,4.80
2019-05-03T15:40:51.050Z,4.80
2019-05-03T15:46:02.311Z,4.80
2019-05-03T15:51:06.209Z,4.33
2019-05-03T15:56:09.834Z,3.97
2019-05-03T16:01:16.205Z,4.00
2019-05-03T16:06:24.689Z,4.13
2019-05-03T16:11:28.156Z,4.27
2019-05-03T16:16:31.774Z,4.10
2019-05-03T16:21:41.729Z,4.10
2019-05-03T16:27:05.003Z,5.60
2019-05-03T16:32:09.474Z,7.33
2019-05-03T16:37:17.463Z,6.73
2019-05-03T16:42:27.435Z,6.90
2019-05-03T16:47:31.386Z,7.90
2019-05-03T16:52:35.463Z,9.53
2019-05-03T16:57:39.226Z,8.80
2019-05-03T17:02:44.629Z,8.30
2019-05-03T17:08:06.605Z,7.80
2019-05-03T17:13:15.453Z,8.07
2019-05-03T17:18:24.970Z,8.37
2019-05-03T17:23:40.960Z,11.37
2019-05-03T17:28:40.557Z,8.97
2019-05-03T17:33:53.011Z,13.10
2019-05-03T17:38:51.167Z,10.30
2019-05-03T17:43:58.904Z,12.00
2019-05-03T17:49:05.252Z,10.73
2019-05-03T17:54:44.865Z,12.47
2019-05-03T17:59:54.815Z,13.73
2019-05-03T18:05:16.125Z,11.87
2019-05-03T18:10:22.062Z,11.90
2019-05-03T18:15:25.729Z,20.33
2019-05-03T18:20:32.253Z,10.40
2019-05-03T18:25:38.392Z,10.07
2019-05-03T18:30:45.468Z,9.63
2019-05-03T18:35:50.805Z,10.23
2019-05-03T18:40:55.322Z,11.00
2019-05-03T18:46:09.777Z,10.20
2019-05-03T18:51:19.380Z,7.37
2019-05-03T18:56:26.678Z,10.70
2019-05-03T19:01:34.581Z,9.50
2019-05-03T19:06:38.383Z,9.20
2019-05-03T19:12:01.842Z,10.23
2019-05-03T19:17:07.266Z,11.10
2019-05-03T19:22:11.024Z,10.43
2019-05-03T19:27:26.375Z,9.80
2019-05-03T19:32:32.697Z,8.50
2019-05-03T19:37:40.822Z,8.17
2019-05-03T19:42:46.097Z,7.80
2019-05-03T19:47:55.679Z,7.70
2019-05-03T19:53:15.987Z,7.30
2019-05-03T19:58:21.251Z,9.40
2019-05-03T20:03:40.909Z,7.07
2019-05-03T20:08:46.175Z,6.70
2019-05-03T20:13:51.341Z,7.83
2019-05-03T20:18:55.525Z,8.53
2019-05-03T20:24:00.252Z,8.13
2019-05-03T20:29:03.872Z,8.67
2019-05-03T20:34:10.326Z,8.37
2019-05-03T20:39:16.914Z,7.17
2019-05-03T20:44:35.412Z,8.20
2019-05-03T20:49:40.793Z,8.50
2019-05-03T20:54:44.788Z,7.93
2019-05-03T20:59:51.808Z,8.60
2019-05-03T21:04:54.954Z,8.37
2019-05-03T21:09:58.706Z,9.87
2019-05-03T21:15:04.912Z,9.20
2019-05-03T21:20:11.386Z,9.60
2019-05-03T21:25:19.284Z,9.90
2019-05-03T21:36:31.208Z,10.77
2019-05-03T21:41:38.031Z,10.03
2019-05-03T21:46:49.351Z,9.50
2019-05-03T21:51:54.687Z,12.43
2019-05-03T21:56:58.371Z,11.90
2019-05-03T22:02:02.130Z,10.70
2019-05-03T22:07:05.879Z,9.80
2019-05-03T22:12:09.543Z,10.13
2019-05-03T22:17:37.026Z,9.13
2019-05-03T22:22:51.666Z,10.27
2019-05-03T22:28:00.723Z,11.47
2019-05-03T22:33:05.213Z,10.87
2019-05-03T22:38:09.010Z,14.67
2019-05-03T22:43:14.680Z,14.10
2019-05-03T22:48:19.542Z,13.37
2019-05-03T22:53:25.232Z,11.00
2019-05-03T22:58:28.513Z,11.33
2019-05-03T23:03:35.429Z,12.43
2019-05-03T23:08:42.187Z,11.90
2019-05-03T23:13:47.450Z,10.80
2019-05-03T23:18:54.752Z,11.40
2019-05-03T23:24:00.802Z,11.30
2019-05-03T23:29:07.330Z,10.43
2019-05-03T23:34:11.673Z,11.20
2019-05-03T23:39:16.932Z,10.13
2019-05-03T23:44:29.514Z,11.00
2019-05-03T23:49:35.129Z,11.00
2019-05-03T23:54:38.480Z,13.50
2019-05-03T23:59:46.683Z,12.67
